createdAt,value
2016-04-08T00:00:25.396Z,0
2016-04-08T00:01:25.399Z,0
2016-04-08T00:02:25.448Z,0
2016-04-08T00:03:25.467Z,0
2016-04-08T00:04:25.470Z,0
2016-04-08T00:05:25.488Z,0
2016-04-08T00:06:25.506Z,0
2016-04-08T00:07:25.524Z,0
2016-04-08T00:08:25.543Z,0
2016-04-08T00:09:25.577Z,0
2016-04-08T00:10:25.595Z,0
2016-04-08T00:11:25.614Z,0
2016-04-08T00:12:25.632Z,0
2016-04-08T00:13:25.655Z,0
2016-04-08T00:14:25.672Z,0
2016-04-08T00:15:25.691Z,0
2016-04-08T00:16:25.724Z,0
2016-04-08T00:17:25.743Z,0
2016-04-08T00:18:25.746Z,0
2016-04-08T00:19:25.780Z,0
2016-04-08T00:20:25.813Z,0
2016-04-08T00:21:25.801Z,0
2016-04-08T00:22:25.851Z,0
2016-04-08T00:23:25.884Z,0
2016-04-08T00:24:25.887Z,0
2016-04-08T00:25:25.889Z,0
2016-04-08T00:26:25.923Z,0
2016-04-08T00:27:25.942Z,0
2016-04-08T00:28:25.975Z,0
2016-04-08T00:29:25.978Z,0
2016-04-08T00:30:25.996Z,0
2016-04-08T00:31:26.014Z,0
2016-04-08T00:32:26.049Z,0
2016-04-08T00:33:26.082Z,0
2016-04-08T00:34:26.101Z,0
2016-04-08T00:35:26.088Z,0
2016-04-08T00:36:26.138Z,0
2016-04-08T00:37:26.141Z,0
2016-04-08T00:38:26.143Z,0
2016-04-08T00:39:26.177Z,0
2016-04-08T00:40:26.196Z,0
2016-04-08T00:41:26.213Z,0
2016-04-08T00:42:26.232Z,0
2016-04-08T00:43:26.249Z,0
2016-04-08T00:44:26.284Z,0
2016-04-08T00:45:26.302Z,0
2016-04-08T00:46:26.304Z,0
2016-04-08T00:47:26.323Z,0
2016-04-08T00:48:26.342Z,0
2016-04-08T00:49:26.376Z,0
2016-04-08T00:50:26.394Z,0
2016-04-08T00:51:26.428Z,0
2016-04-08T00:52:26.431Z,0
2016-04-08T00:53:26.464Z,0
2016-04-08T00:54:28.061Z,0
2016-04-08T00:55:26.486Z,0
2016-04-08T00:56:26.519Z,0
2016-04-08T00:57:26.538Z,0
2016-04-08T00:58:26.540Z,0
2016-04-08T00:59:26.575Z,0
2016-04-08T01:00:26.592Z,0
2016-04-08T01:01:26.611Z,0
2016-04-08T01:02:26.645Z,0
2016-04-08T01:03:26.647Z,0
2016-04-08T01:04:26.666Z,0
2016-04-08T01:05:26.700Z,0
2016-04-08T01:06:26.702Z,0
2016-04-08T01:07:26.752Z,0
2016-04-08T01:08:26.755Z,0
2016-04-08T01:09:26.804Z,0
2016-04-08T01:10:26.792Z,0
2016-04-08T01:11:26.825Z,0
2016-04-08T01:12:26.844Z,0
2016-04-08T01:13:26.847Z,0
2016-04-08T01:14:26.865Z,0
2016-04-08T01:15:26.883Z,0
2016-04-08T01:16:26.901Z,0
2016-04-08T01:17:26.935Z,0
2016-04-08T01:18:26.954Z,0
2016-04-08T01:19:26.971Z,0
2016-04-08T01:20:26.990Z,0
2016-04-08T01:21:27.008Z,0
2016-04-08T01:22:27.026Z,0
2016-04-08T01:23:27.045Z,0
2016-04-08T01:24:27.064Z,0
2016-04-08T01:25:27.082Z,0
2016-04-08T01:26:27.100Z,0
2016-04-08T01:27:27.118Z,0
2016-04-08T01:28:27.152Z,0
2016-04-08T01:29:27.170Z,0
2016-04-08T01:30:27.205Z,0
2016-04-08T01:31:27.207Z,0
2016-04-08T01:32:27.428Z,0
2016-04-08T01:33:27.259Z,0
2016-04-08T01:34:27.262Z,0
2016-04-08T01:35:27.281Z,0
2016-04-08T01:36:27.300Z,0
2016-04-08T01:37:27.333Z,0
2016-04-08T01:38:27.352Z,0
2016-04-08T01:39:27.369Z,0
2016-04-08T01:40:27.388Z,0
2016-04-08T01:41:27.406Z,0
2016-04-08T01:42:27.424Z,0
2016-04-08T01:43:27.427Z,0
2016-04-08T01:44:27.476Z,0
2016-04-08T01:45:27.479Z,0
2016-04-08T01:46:27.498Z,0
2016-04-08T01:47:27.532Z,0
2016-04-08T01:48:27.566Z,0
2016-04-08T01:49:27.568Z,0
2016-04-08T01:50:27.571Z,0
2016-04-08T01:51:27.604Z,0
2016-04-08T01:52:27.654Z,0
2016-04-08T01:53:27.657Z,0
2016-04-08T01:54:27.659Z,0
2016-04-08T01:55:27.678Z,0
2016-04-08T01:56:27.695Z,0
2016-04-08T01:57:27.730Z,0
2016-04-08T01:58:27.748Z,0
2016-04-08T01:59:27.751Z,0
2016-04-08T02:00:27.801Z,0
2016-04-08T02:01:27.803Z,0
2016-04-08T02:02:27.822Z,0
2016-04-08T02:03:27.840Z,0
2016-04-08T02:04:27.875Z,0
2016-04-08T02:05:27.877Z,0
2016-04-08T02:06:27.911Z,0
2016-04-08T02:07:27.929Z,0
2016-04-08T02:08:27.930Z,0
2016-04-08T02:09:27.964Z,0
2016-04-08T02:10:28.014Z,0
2016-04-08T02:11:28.001Z,0
2016-04-08T02:12:28.034Z,0
2016-04-08T02:13:28.037Z,0
2016-04-08T02:14:28.055Z,0
2016-04-08T02:15:28.074Z,0
2016-04-08T02:16:28.108Z,0
2016-04-08T02:17:28.110Z,0
2016-04-08T02:18:28.144Z,0
2016-04-08T02:19:28.162Z,0
2016-04-08T02:20:28.196Z,0
2016-04-08T02:21:28.183Z,0
2016-04-08T02:22:28.217Z,0
2016-04-08T02:23:28.235Z,0
2016-04-08T02:24:28.254Z,0
2016-04-08T02:25:28.288Z,0
2016-04-08T02:26:28.307Z,0
2016-04-08T02:27:28.325Z,0
2016-04-08T02:28:28.452Z,0
2016-04-08T02:29:28.362Z,0
2016-04-08T02:30:28.364Z,0
2016-04-08T02:31:28.398Z,0
2016-04-08T02:32:28.415Z,0
2016-04-08T02:33:28.418Z,0
2016-04-08T02:34:28.453Z,0
2016-04-08T02:35:28.471Z,0
2016-04-08T02:36:28.490Z,0
2016-04-08T02:37:28.508Z,0
2016-04-08T02:38:27.776Z,0
2016-04-08T02:39:28.545Z,0
2016-04-08T02:40:28.562Z,0
2016-04-08T02:41:28.581Z,0
2016-04-08T02:42:28.599Z,0
2016-04-08T02:43:28.617Z,0
2016-04-08T02:44:28.636Z,0
2016-04-08T02:45:28.716Z,0
2016-04-08T02:46:28.688Z,0
2016-04-08T02:47:28.706Z,0
2016-04-08T02:48:28.725Z,0
2016-04-08T02:49:28.743Z,0
2016-04-08T02:50:28.761Z,0
2016-04-08T02:51:28.780Z,0
2016-04-08T02:52:28.799Z,0
2016-04-08T02:53:28.832Z,0
2016-04-08T02:54:28.850Z,0
2016-04-08T02:55:28.853Z,0
2016-04-08T02:56:28.871Z,0
2016-04-08T02:57:28.890Z,0
2016-04-08T02:58:28.720Z,0
2016-04-08T02:59:28.942Z,0
2016-04-08T03:00:28.960Z,0
2016-04-08T03:01:29.010Z,0
2016-04-08T03:02:28.997Z,0
2016-04-08T03:03:29.015Z,0
2016-04-08T03:04:29.034Z,0
2016-04-08T03:05:29.067Z,0
2016-04-08T03:06:29.070Z,0
2016-04-08T03:07:29.089Z,0
2016-04-08T03:08:29.122Z,0
2016-04-08T03:09:29.125Z,0
2016-04-08T03:10:29.142Z,0
2016-04-08T03:11:29.177Z,0
2016-04-08T03:12:29.180Z,0
2016-04-08T03:13:29.072Z,0
2016-04-08T03:14:29.217Z,0
2016-04-08T03:15:29.266Z,0
2016-04-08T03:16:29.284Z,0
2016-04-08T03:17:29.287Z,0
2016-04-08T03:18:29.321Z,0
2016-04-08T03:19:29.324Z,0
2016-04-08T03:20:29.342Z,0
2016-04-08T03:21:28.610Z,0
2016-04-08T03:22:29.379Z,0
2016-04-08T03:23:29.413Z,0
2016-04-08T03:24:29.463Z,0
2016-04-08T03:25:29.434Z,0
2016-04-08T03:26:29.468Z,0
2016-04-08T03:27:29.486Z,0
2016-04-08T03:28:29.583Z,0
2016-04-08T03:29:29.523Z,0
2016-04-08T03:30:29.526Z,0
2016-04-08T03:31:29.559Z,0
2016-04-08T03:32:29.577Z,0
2016-04-08T03:33:29.611Z,0
2016-04-08T03:34:29.614Z,0
2016-04-08T03:35:29.665Z,0
2016-04-08T03:36:29.728Z,0
2016-04-08T03:37:29.791Z,0
2016-04-08T03:38:29.852Z,0
2016-04-08T03:39:29.915Z,0
2016-04-08T03:40:29.955Z,0
2016-04-08T03:41:30.005Z,0
2016-04-08T03:42:30.038Z,0
2016-04-08T03:43:30.245Z,0
2016-04-08T03:44:30.107Z,0
2016-04-08T03:45:30.118Z,0
2016-04-08T03:46:30.141Z,0
2016-04-08T03:47:30.179Z,0
2016-04-08T03:48:30.203Z,0
2016-04-08T03:49:30.227Z,0
2016-04-08T03:50:30.248Z,0
2016-04-08T03:51:30.269Z,0
2016-04-08T03:52:30.290Z,0
2016-04-08T03:53:30.309Z,0
2016-04-08T03:54:30.345Z,0
2016-04-08T03:55:30.365Z,0
2016-04-08T03:56:30.368Z,0
2016-04-08T03:57:30.402Z,0
2016-04-08T03:58:30.500Z,0
2016-04-08T03:59:30.441Z,0
2016-04-08T04:00:30.459Z,0
2016-04-08T04:01:30.478Z,0
2016-04-08T04:02:30.482Z,0
2016-04-08T04:03:30.516Z,0
2016-04-08T04:04:30.535Z,0
2016-04-08T04:05:30.553Z,0
2016-04-08T04:06:30.571Z,0
2016-04-08T04:07:30.574Z,0
2016-04-08T04:08:30.607Z,0
2016-04-08T04:09:30.626Z,0
2016-04-08T04:10:30.660Z,0
2016-04-08T04:11:30.678Z,4
2016-04-08T04:12:30.681Z,4
2016-04-08T04:13:30.699Z,0
2016-04-08T04:14:30.717Z,0
2016-04-08T04:15:30.737Z,4
2016-04-08T04:16:30.754Z,4
2016-04-08T04:17:30.773Z,4
2016-04-08T04:18:30.791Z,4
2016-04-08T04:19:30.825Z,8
2016-04-08T04:20:30.843Z,8
2016-04-08T04:21:30.861Z,8
2016-04-08T04:22:30.864Z,8
2016-04-08T04:23:30.883Z,8
2016-04-08T04:24:30.932Z,12
2016-04-08T04:25:30.934Z,12
2016-04-08T04:26:30.937Z,16
2016-04-08T04:27:30.986Z,16
2016-04-08T04:28:30.989Z,20
2016-04-08T04:29:31.008Z,20
2016-04-08T04:30:31.027Z,20
2016-04-08T04:31:31.045Z,20
2016-04-08T04:32:31.078Z,24
2016-04-08T04:33:31.097Z,28
2016-04-08T04:34:31.099Z,28
2016-04-08T04:35:31.118Z,28
2016-04-08T04:36:31.136Z,36
2016-04-08T04:37:31.154Z,36
2016-04-08T04:38:31.173Z,44
2016-04-08T04:39:31.191Z,44
2016-04-08T04:40:31.210Z,48
2016-04-08T04:41:31.228Z,52
2016-04-08T04:42:31.246Z,52
2016-04-08T04:43:31.265Z,60
2016-04-08T04:44:31.282Z,60
2016-04-08T04:45:31.301Z,64
2016-04-08T04:46:31.320Z,72
2016-04-08T04:47:31.353Z,76
2016-04-08T04:48:31.371Z,80
2016-04-08T04:49:29.952Z,80
2016-04-08T04:50:31.408Z,76
2016-04-08T04:51:31.426Z,76
2016-04-08T04:52:31.429Z,84
2016-04-08T04:53:31.463Z,92
2016-04-08T04:54:31.701Z,104
2016-04-08T04:55:31.500Z,116
2016-04-08T04:56:31.518Z,120
2016-04-08T04:57:31.568Z,116
2016-04-08T04:58:31.555Z,104
2016-04-08T04:59:31.417Z,92
2016-04-08T05:00:31.607Z,92
2016-04-08T05:01:31.610Z,92
2016-04-08T05:02:31.644Z,92
2016-04-08T05:03:31.646Z,96
2016-04-08T05:04:31.664Z,104
2016-04-08T05:05:31.682Z,120
2016-04-08T05:06:31.701Z,144
2016-04-08T05:07:31.719Z,164
2016-04-08T05:08:31.722Z,176
2016-04-08T05:09:31.772Z,172
2016-04-08T05:10:31.805Z,164
2016-04-08T05:11:31.793Z,148
2016-04-08T05:12:31.811Z,148
2016-04-08T05:13:31.829Z,148
2016-04-08T05:14:31.863Z,156
2016-04-08T05:15:31.866Z,176
2016-04-08T05:16:31.900Z,176
2016-04-08T05:17:31.919Z,168
2016-04-08T05:18:31.937Z,160
2016-04-08T05:19:31.955Z,152
2016-04-08T05:20:32.162Z,144
2016-04-08T05:21:31.992Z,140
2016-04-08T05:22:32.010Z,136
2016-04-08T05:23:32.012Z,132
2016-04-08T05:24:32.047Z,136
2016-04-08T05:25:32.065Z,136
2016-04-08T05:26:32.083Z,140
2016-04-08T05:27:32.101Z,140
2016-04-08T05:28:32.119Z,148
2016-04-08T05:29:32.138Z,152
2016-04-08T05:30:32.156Z,152
2016-04-08T05:31:32.175Z,148
2016-04-08T05:32:32.194Z,152
2016-04-08T05:33:32.227Z,156
2016-04-08T05:34:32.245Z,152
2016-04-08T05:35:32.248Z,160
2016-04-08T05:36:32.267Z,164
2016-04-08T05:37:32.285Z,168
2016-04-08T05:38:32.303Z,168
2016-04-08T05:39:32.337Z,168
2016-04-08T05:40:32.340Z,172
2016-04-08T05:41:32.358Z,180
2016-04-08T05:42:32.376Z,176
2016-04-08T05:43:32.394Z,184
2016-04-08T05:44:32.428Z,184
2016-04-08T05:45:32.431Z,192
2016-04-08T05:46:32.465Z,192
2016-04-08T05:47:32.467Z,192
2016-04-08T05:48:32.487Z,196
2016-04-08T05:49:32.504Z,204
2016-04-08T05:50:32.523Z,212
2016-04-08T05:51:32.557Z,240
2016-04-08T05:52:31.825Z,248
2016-04-08T05:53:32.578Z,260
2016-04-08T05:54:32.642Z,268
2016-04-08T05:55:32.614Z,288
2016-04-08T05:56:32.633Z,316
2016-04-08T05:57:32.791Z,316
2016-04-08T05:58:32.684Z,316
2016-04-08T05:59:32.703Z,320
2016-04-08T06:00:32.706Z,332
2016-04-08T06:01:32.740Z,336
2016-04-08T06:02:32.758Z,328
2016-04-08T06:03:32.777Z,336
2016-04-08T06:04:32.795Z,336
2016-04-08T06:05:32.813Z,348
2016-04-08T06:06:32.831Z,336
2016-04-08T06:07:32.866Z,320
2016-04-08T06:08:32.883Z,312
2016-04-08T06:09:32.902Z,300
2016-04-08T06:10:32.920Z,316
2016-04-08T06:11:32.923Z,348
2016-04-08T06:12:32.941Z,360
2016-04-08T06:13:32.960Z,396
2016-04-08T06:14:32.977Z,412
2016-04-08T06:15:32.997Z,408
2016-04-08T06:16:33.030Z,368
2016-04-08T06:17:33.065Z,344
2016-04-08T06:18:33.051Z,320
2016-04-08T06:19:33.070Z,292
2016-04-08T06:20:33.088Z,292
2016-04-08T06:21:33.106Z,292
2016-04-08T06:22:33.328Z,312
2016-04-08T06:23:33.159Z,312
2016-04-08T06:24:33.161Z,300
2016-04-08T06:25:33.242Z,284
2016-04-08T06:26:33.213Z,276
2016-04-08T06:27:33.278Z,264
2016-04-08T06:28:33.250Z,256
2016-04-08T06:29:33.252Z,248
2016-04-08T06:30:33.270Z,248
2016-04-08T06:31:33.305Z,248
2016-04-08T06:32:33.323Z,252
2016-04-08T06:33:33.342Z,248
2016-04-08T06:34:33.345Z,248
2016-04-08T06:35:32.628Z,244
2016-04-08T06:36:33.397Z,244
2016-04-08T06:37:33.415Z,240
2016-04-08T06:38:33.418Z,248
2016-04-08T06:39:33.452Z,252
2016-04-08T06:40:33.470Z,252
2016-04-08T06:41:33.489Z,260
2016-04-08T06:42:33.491Z,256
2016-04-08T06:43:33.525Z,260
2016-04-08T06:44:33.559Z,260
2016-04-08T06:45:33.561Z,260
2016-04-08T06:46:33.643Z,256
2016-04-08T06:47:33.599Z,252
2016-04-08T06:48:33.617Z,252
2016-04-08T06:49:33.619Z,252
2016-04-08T06:50:33.654Z,260
2016-04-08T06:51:33.671Z,268
2016-04-08T06:52:33.690Z,264
2016-04-08T06:53:33.707Z,264
2016-04-08T06:54:33.726Z,268
2016-04-08T06:55:33.745Z,272
2016-04-08T06:56:33.763Z,272
2016-04-08T06:57:33.781Z,272
2016-04-08T06:58:33.800Z,276
2016-04-08T06:59:33.834Z,276
2016-04-08T07:00:33.826Z,280
2016-04-08T07:01:33.859Z,276
2016-04-08T07:02:33.894Z,280
2016-04-08T07:03:33.896Z,280
2016-04-08T07:04:33.914Z,284
2016-04-08T07:05:33.932Z,284
2016-04-08T07:06:33.950Z,284
2016-04-08T07:07:33.985Z,284
2016-04-08T07:08:34.036Z,284
2016-04-08T07:09:34.209Z,284
2016-04-08T07:10:34.026Z,284
2016-04-08T07:11:34.059Z,288
2016-04-08T07:12:34.062Z,288
2016-04-08T07:13:34.080Z,288
2016-04-08T07:14:34.287Z,288
2016-04-08T07:15:34.117Z,288
2016-04-08T07:16:34.151Z,288
2016-04-08T07:17:34.153Z,288
2016-04-08T07:18:34.188Z,288
2016-04-08T07:19:34.191Z,292
2016-04-08T07:20:34.255Z,292
2016-04-08T07:21:34.227Z,288
2016-04-08T07:22:34.260Z,292
2016-04-08T07:23:34.280Z,292
2016-04-08T07:24:34.313Z,292
2016-04-08T07:25:34.160Z,292
2016-04-08T07:26:34.350Z,292
2016-04-08T07:27:34.352Z,296
2016-04-08T07:28:34.402Z,292
2016-04-08T07:29:34.388Z,292
2016-04-08T07:30:34.408Z,296
2016-04-08T07:31:34.457Z,292
2016-04-08T07:32:34.459Z,292
2016-04-08T07:33:34.493Z,292
2016-04-08T07:34:34.481Z,296
2016-04-08T07:35:34.530Z,296
2016-04-08T07:36:34.517Z,296
2016-04-08T07:37:34.567Z,296
2016-04-08T07:38:34.570Z,296
2016-04-08T07:39:34.573Z,296
2016-04-08T07:40:34.606Z,296
2016-04-08T07:41:34.640Z,296
2016-04-08T07:42:34.643Z,296
2016-04-08T07:43:34.662Z,296
2016-04-08T07:44:34.820Z,300
2016-04-08T07:45:34.697Z,300
2016-04-08T07:46:34.731Z,300
2016-04-08T07:47:34.750Z,304
2016-04-08T07:48:34.769Z,304
2016-04-08T07:49:34.772Z,304
2016-04-08T07:50:34.806Z,304
2016-04-08T07:51:34.823Z,304
2016-04-08T07:52:35.044Z,308
2016-04-08T07:53:35.173Z,308
2016-04-08T07:54:34.878Z,304
2016-04-08T07:55:34.913Z,308
2016-04-08T07:56:34.915Z,312
2016-04-08T07:57:34.933Z,308
2016-04-08T07:58:34.952Z,312
2016-04-08T07:59:35.094Z,312
2016-04-08T08:00:34.988Z,316
2016-04-08T08:01:35.022Z,316
2016-04-08T08:02:35.024Z,312
2016-04-08T08:03:35.059Z,316
2016-04-08T08:04:35.076Z,316
2016-04-08T08:05:35.080Z,316
2016-04-08T08:06:35.723Z,316
2016-04-08T08:07:35.163Z,316
2016-04-08T08:08:35.165Z,320
2016-04-08T08:09:35.168Z,320
2016-04-08T08:10:35.203Z,324
2016-04-08T08:11:35.408Z,324
2016-04-08T08:12:35.505Z,324
2016-04-08T08:13:35.242Z,324
2016-04-08T08:14:35.401Z,328
2016-04-08T08:15:35.528Z,332
2016-04-08T08:16:35.328Z,344
2016-04-08T08:17:35.347Z,352
2016-04-08T08:18:35.349Z,356
2016-04-08T08:19:35.383Z,352
2016-04-08T08:20:35.401Z,348
2016-04-08T08:21:35.420Z,344
2016-04-08T08:22:35.438Z,344
2016-04-08T08:23:35.472Z,348
2016-04-08T08:24:35.944Z,348
2016-04-08T08:25:35.493Z,344
2016-04-08T08:26:35.511Z,352
2016-04-08T08:27:35.733Z,352
2016-04-08T08:28:35.564Z,356
2016-04-08T08:29:35.722Z,360
2016-04-08T08:30:35.443Z,364
2016-04-08T08:31:35.619Z,372
2016-04-08T08:32:35.637Z,376
2016-04-08T08:33:35.671Z,376
2016-04-08T08:34:35.689Z,380
2016-04-08T08:35:35.691Z,384
2016-04-08T08:36:35.726Z,388
2016-04-08T08:37:35.744Z,392
2016-04-08T08:38:35.746Z,392
2016-04-08T08:39:35.781Z,392
2016-04-08T08:40:35.798Z,396
2016-04-08T08:41:35.817Z,400
2016-04-08T08:42:35.851Z,408
2016-04-08T08:43:35.869Z,424
2016-04-08T08:44:36.012Z,444
2016-04-08T08:45:35.906Z,440
2016-04-08T08:46:35.925Z,428
2016-04-08T08:47:35.942Z,424
2016-04-08T08:48:35.976Z,424
2016-04-08T08:49:35.979Z,424
2016-04-08T08:50:35.997Z,424
2016-04-08T08:51:36.031Z,424
2016-04-08T08:52:36.049Z,432
2016-04-08T08:53:36.631Z,440
2016-04-08T08:54:36.086Z,444
2016-04-08T08:55:36.120Z,448
2016-04-08T08:56:36.139Z,456
2016-04-08T08:57:36.141Z,460
2016-04-08T08:58:36.175Z,472
2016-04-08T08:59:36.241Z,476
2016-04-08T09:00:36.227Z,488
2016-04-08T09:01:36.230Z,492
2016-04-08T09:02:36.263Z,500
2016-04-08T09:03:36.299Z,496
2016-04-08T09:04:36.394Z,504
2016-04-08T09:05:36.319Z,508
2016-04-08T09:06:36.338Z,512
2016-04-08T09:07:36.371Z,520
2016-04-08T09:08:36.390Z,524
2016-04-08T09:09:36.392Z,528
2016-04-08T09:10:36.646Z,540
2016-04-08T09:11:36.663Z,548
2016-04-08T09:12:36.462Z,552
2016-04-08T09:13:36.481Z,556
2016-04-08T09:14:36.515Z,564
2016-04-08T09:15:36.549Z,568
2016-04-08T09:16:36.943Z,568
2016-04-08T09:17:36.804Z,568
2016-04-08T09:18:36.603Z,568
2016-04-08T09:19:36.638Z,568
2016-04-08T09:20:36.828Z,572
2016-04-08T09:21:36.784Z,580
2016-04-08T09:22:37.005Z,584
2016-04-08T09:23:36.695Z,588
2016-04-08T09:24:36.730Z,596
2016-04-08T09:25:36.747Z,600
2016-04-08T09:26:36.798Z,608
2016-04-08T09:27:36.800Z,616
2016-04-08T09:28:36.818Z,620
2016-04-08T09:29:36.853Z,624
2016-04-08T09:30:36.855Z,616
2016-04-08T09:31:36.889Z,632
2016-04-08T09:32:36.907Z,608
2016-04-08T09:33:36.941Z,644
2016-04-08T09:34:37.038Z,652
2016-04-08T09:35:36.963Z,656
2016-04-08T09:36:36.997Z,672
2016-04-08T09:37:37.015Z,676
2016-04-08T09:38:37.032Z,684
2016-04-08T09:39:37.067Z,692
2016-04-08T09:40:37.085Z,696
2016-04-08T09:41:37.103Z,700
2016-04-08T09:42:37.121Z,708
2016-04-08T09:43:37.187Z,716
2016-04-08T09:44:37.173Z,720
2016-04-08T09:45:37.208Z,724
2016-04-08T09:46:37.226Z,736
2016-04-08T09:47:37.260Z,740
2016-04-08T09:48:37.262Z,748
2016-04-08T09:49:37.312Z,748
2016-04-08T09:50:37.597Z,748
2016-04-08T09:51:37.317Z,756
2016-04-08T09:52:37.367Z,756
2016-04-08T09:53:37.417Z,764
2016-04-08T09:54:37.403Z,768
2016-04-08T09:55:37.423Z,772
2016-04-08T09:56:37.441Z,784
2016-04-08T09:57:37.462Z,800
2016-04-08T09:58:38.184Z,808
2016-04-08T09:59:37.515Z,820
2016-04-08T10:00:37.534Z,828
2016-04-08T10:01:37.552Z,832
2016-04-08T10:02:37.570Z,844
2016-04-08T10:03:37.604Z,848
2016-04-08T10:04:37.779Z,836
2016-04-08T10:05:37.656Z,840
2016-04-08T10:06:37.659Z,844
2016-04-08T10:07:37.692Z,856
2016-04-08T10:08:37.727Z,864
2016-04-08T10:09:37.730Z,880
2016-04-08T10:10:37.778Z,888
2016-04-08T10:11:37.986Z,904
2016-04-08T10:12:37.831Z,912
2016-04-08T10:13:37.833Z,936
2016-04-08T10:14:37.852Z,1060
2016-04-08T10:15:37.871Z,1168
2016-04-08T10:16:37.936Z,1172
2016-04-08T10:17:37.922Z,1040
2016-04-08T10:18:37.941Z,996
2016-04-08T10:19:37.975Z,992
2016-04-08T10:20:37.993Z,964
2016-04-08T10:21:38.028Z,956
2016-04-08T10:22:38.030Z,968
2016-04-08T10:23:38.079Z,972
2016-04-08T10:24:38.083Z,976
2016-04-08T10:25:38.101Z,984
2016-04-08T10:26:38.135Z,992
2016-04-08T10:27:38.153Z,992
2016-04-08T10:28:38.187Z,1000
2016-04-08T10:29:38.221Z,1012
2016-04-08T10:30:38.240Z,1020
2016-04-08T10:31:38.242Z,1028
2016-04-08T10:32:38.306Z,1016
2016-04-08T10:33:38.294Z,1064
2016-04-08T10:34:38.328Z,1116
2016-04-08T10:35:38.331Z,1152
2016-04-08T10:36:38.380Z,1288
2016-04-08T10:37:38.398Z,1408
2016-04-08T10:38:38.620Z,1368
2016-04-08T10:39:38.467Z,1232
2016-04-08T10:40:38.469Z,1200
2016-04-08T10:41:38.487Z,1200
2016-04-08T10:42:38.521Z,1160
2016-04-08T10:43:38.556Z,1128
2016-04-08T10:44:38.964Z,1100
2016-04-08T10:45:38.592Z,1160
2016-04-08T10:46:38.625Z,980
2016-04-08T10:47:38.628Z,1144
2016-04-08T10:48:38.678Z,1160
2016-04-08T10:49:38.697Z,1208
2016-04-08T10:50:38.730Z,1096
2016-04-08T10:51:38.748Z,1088
2016-04-08T10:52:38.767Z,1120
2016-04-08T10:53:38.832Z,1280
2016-04-08T10:54:38.835Z,1040
2016-04-08T10:55:38.837Z,1428
2016-04-08T10:56:38.856Z,1548
2016-04-08T10:57:38.874Z,1600
2016-04-08T10:58:38.908Z,1868
2016-04-08T10:59:38.927Z,1764
2016-04-08T11:00:38.942Z,1612
2016-04-08T11:01:38.991Z,1584
2016-04-08T11:02:39.229Z,1700
2016-04-08T11:03:39.044Z,1740
2016-04-08T11:04:39.061Z,1860
2016-04-08T11:05:39.081Z,1972
2016-04-08T11:06:39.114Z,1808
2016-04-08T11:07:39.148Z,1588
2016-04-08T11:08:39.150Z,1424
2016-04-08T11:09:39.169Z,1296
2016-04-08T11:10:39.219Z,1276
2016-04-08T11:11:39.237Z,1252
2016-04-08T11:12:39.255Z,1260
2016-04-08T11:13:39.274Z,1316
2016-04-08T11:14:39.307Z,788
2016-04-08T11:15:39.357Z,1340
2016-04-08T11:16:39.360Z,1328
2016-04-08T11:17:39.582Z,1172
2016-04-08T11:18:39.803Z,1388
2016-04-08T11:19:39.430Z,1308
2016-04-08T11:20:39.465Z,1280
2016-04-08T11:21:39.499Z,696
2016-04-08T11:22:39.516Z,728
2016-04-08T11:23:39.534Z,1284
2016-04-08T11:24:39.569Z,1344
2016-04-08T11:25:39.587Z,1320
2016-04-08T11:26:39.605Z,1308
2016-04-08T11:27:39.842Z,1288
2016-04-08T11:28:39.657Z,1224
2016-04-08T11:29:39.692Z,1260
2016-04-08T11:30:39.710Z,1272
2016-04-08T11:31:39.790Z,1220
2016-04-08T11:32:39.965Z,1136
2016-04-08T11:33:39.795Z,1200
2016-04-08T11:34:40.018Z,1200
2016-04-08T11:35:39.848Z,1224
2016-04-08T11:36:39.867Z,1232
2016-04-08T11:37:39.886Z,1224
2016-04-08T11:38:39.934Z,1236
2016-04-08T11:39:39.953Z,668
2016-04-08T11:40:39.987Z,636
2016-04-08T11:41:40.005Z,640
2016-04-08T11:42:40.039Z,668
2016-04-08T11:43:40.073Z,716
2016-04-08T11:44:40.075Z,912
2016-04-08T11:45:40.093Z,1340
2016-04-08T11:46:40.315Z,1328
2016-04-08T11:47:40.178Z,1312
2016-04-08T11:48:40.165Z,1316
2016-04-08T11:49:40.199Z,1320
2016-04-08T11:50:40.216Z,1324
2016-04-08T11:51:40.266Z,1332
2016-04-08T11:52:40.535Z,1356
2016-04-08T11:53:40.304Z,1400
2016-04-08T11:54:40.540Z,1504
2016-04-08T11:55:40.354Z,1652
2016-04-08T11:56:40.405Z,1832
2016-04-08T11:57:40.423Z,2036
2016-04-08T11:58:40.457Z,2288
2016-04-08T11:59:40.460Z,2480
2016-04-08T12:00:40.493Z,2752
2016-04-08T12:01:40.512Z,2932
2016-04-08T12:02:40.546Z,2976
2016-04-08T12:03:40.564Z,3144
2016-04-08T12:04:40.583Z,3192
2016-04-08T12:05:40.616Z,3132
2016-04-08T12:06:40.651Z,3056
2016-04-08T12:07:40.669Z,2916
2016-04-08T12:08:40.709Z,2704
2016-04-08T12:09:40.727Z,2440
2016-04-08T12:10:40.808Z,2148
2016-04-08T12:11:40.779Z,1912
2016-04-08T12:12:40.814Z,1796
2016-04-08T12:13:40.831Z,1992
2016-04-08T12:14:40.850Z,2376
2016-04-08T12:15:40.900Z,2512
2016-04-08T12:16:40.902Z,2632
2016-04-08T12:17:41.139Z,2448
2016-04-08T12:18:40.955Z,2264
2016-04-08T12:19:41.003Z,2012
2016-04-08T12:20:41.022Z,1684
2016-04-08T12:21:41.040Z,1412
2016-04-08T12:22:41.699Z,1356
2016-04-08T12:23:41.093Z,1332
2016-04-08T12:24:41.126Z,1336
2016-04-08T12:25:41.176Z,1364
2016-04-08T12:26:41.194Z,1304
2016-04-08T12:27:41.212Z,1116
2016-04-08T12:28:41.246Z,1276
2016-04-08T12:29:41.265Z,1220
2016-04-08T12:30:41.376Z,1212
2016-04-08T12:31:41.317Z,1208
2016-04-08T12:32:41.351Z,1232
2016-04-08T12:33:41.370Z,1296
2016-04-08T12:34:41.403Z,1316
2016-04-08T12:35:41.437Z,1364
2016-04-08T12:36:41.487Z,1324
2016-04-08T12:37:41.505Z,1316
2016-04-08T12:38:41.726Z,1384
2016-04-08T12:39:41.557Z,1484
2016-04-08T12:40:41.591Z,1292
2016-04-08T12:41:41.666Z,1144
2016-04-08T12:42:41.709Z,1108
2016-04-08T12:43:41.784Z,1088
2016-04-08T12:44:41.843Z,1068
2016-04-08T12:45:41.917Z,1056
2016-04-08T12:46:41.951Z,1044
2016-04-08T12:47:42.015Z,1032
2016-04-08T12:48:42.063Z,1028
2016-04-08T12:49:42.080Z,1024
2016-04-08T12:50:42.379Z,1016
2016-04-08T12:51:42.153Z,1016
2016-04-08T12:52:42.192Z,1020
2016-04-08T12:53:42.419Z,1024
2016-04-08T12:54:42.270Z,1028
2016-04-08T12:55:42.294Z,1032
2016-04-08T12:56:42.315Z,1032
2016-04-08T12:57:42.350Z,1036
2016-04-08T12:58:42.371Z,1096
2016-04-08T12:59:42.421Z,1120
2016-04-08T13:00:42.426Z,1228
2016-04-08T13:01:42.461Z,1316
2016-04-08T13:02:42.496Z,1368
2016-04-08T13:03:42.515Z,1468
2016-04-08T13:04:42.566Z,1496
2016-04-08T13:05:42.584Z,1520
2016-04-08T13:06:42.618Z,1448
2016-04-08T13:07:42.637Z,1340
2016-04-08T13:08:42.670Z,1268
2016-04-08T13:09:42.705Z,1144
2016-04-08T13:10:42.723Z,1208
2016-04-08T13:11:42.757Z,1232
2016-04-08T13:12:42.979Z,1220
2016-04-08T13:13:42.809Z,1188
2016-04-08T13:14:42.828Z,1156
2016-04-08T13:15:43.143Z,1196
2016-04-08T13:16:42.896Z,1176
2016-04-08T13:17:42.914Z,1220
2016-04-08T13:18:42.947Z,1192
2016-04-08T13:19:42.982Z,1176
2016-04-08T13:20:43.047Z,1156
2016-04-08T13:21:43.034Z,1208
2016-04-08T13:22:43.069Z,1184
2016-04-08T13:23:43.196Z,1168
2016-04-08T13:24:43.120Z,1256
2016-04-08T13:25:43.155Z,1324
2016-04-08T13:26:43.657Z,1304
2016-04-08T13:27:43.207Z,1228
2016-04-08T13:28:43.240Z,1196
2016-04-08T13:29:43.258Z,1272
2016-04-08T13:30:43.543Z,1200
2016-04-08T13:31:43.311Z,1200
2016-04-08T13:32:43.346Z,1300
2016-04-08T13:33:43.379Z,1244
2016-04-08T13:34:43.600Z,1420
2016-04-08T13:35:43.447Z,1512
2016-04-08T13:36:43.465Z,1612
2016-04-08T13:37:43.701Z,1656
2016-04-08T13:38:43.517Z,1700
2016-04-08T13:39:43.551Z,1700
2016-04-08T13:40:43.585Z,1500
2016-04-08T13:41:42.854Z,1532
2016-04-08T13:42:43.637Z,1628
2016-04-08T13:43:43.656Z,1672
2016-04-08T13:44:43.706Z,1572
2016-04-08T13:45:43.770Z,1420
2016-04-08T13:46:43.742Z,1376
2016-04-08T13:47:43.791Z,1420
2016-04-08T13:48:43.794Z,1436
2016-04-08T13:49:43.844Z,1472
2016-04-08T13:50:43.862Z,1408
2016-04-08T13:51:43.897Z,1384
2016-04-08T13:52:43.930Z,1164
2016-04-08T13:53:43.995Z,892
2016-04-08T13:54:43.982Z,916
2016-04-08T13:55:44.017Z,928
2016-04-08T13:56:44.035Z,832
2016-04-08T13:57:44.083Z,1016
2016-04-08T13:58:44.118Z,1284